Steep Rock, Canada
Current Conditions -  °F | °C
As of 11:00 AM on Friday 24 Oct 2014 (Local Time) from CYDN Reporting Station
Clear Clear  
Wind Chill: 61°   Ceiling: Unl
Heat Index: 61°   Visibility: 9mi
Dew Point: 43°   Wind: 20mph
Humidity: 52%   Direction: 270°W
Pressure: 29.58"   Gusts: 29mph
Location:  51.43°N, 98.8°W
Report Text: CYDN 241600Z AUTO 27017G25KT 9SM CLR 16/06 A2958 RMK SLP020 DENSITY ALT 1700FT
Loading
Personal Weather Stations






























Interactive Weather Map
Tropical Storm Tracking
New forecast layout! Learn more

10-Day Weather Forecast

Advertisements
Track Severe Weather on mobile